createdAt,value
2019-04-30T00:01:55.789Z,34.40
2019-04-30T00:04:17.459Z,36.50
2019-04-30T00:06:28.875Z,35.80
2019-04-30T00:08:30.167Z,36.70
2019-04-30T00:10:41.235Z,37.27
2019-04-30T00:12:45.004Z,39.63
2019-04-30T00:14:49.166Z,38.97
2019-04-30T00:16:54.675Z,38.80
2019-04-30T00:19:00.872Z,37.00
2019-04-30T00:21:05.441Z,39.00
2019-04-30T00:23:09.631Z,33.50
2019-04-30T00:25:15.303Z,36.17
2019-04-30T00:27:21.088Z,36.60
2019-04-30T00:29:30.212Z,38.03
2019-04-30T00:31:30.879Z,37.57
2019-04-30T00:33:35.401Z,38.37
2019-04-30T00:35:45.289Z,39.80
2019-04-30T00:37:57.545Z,37.27
2019-04-30T00:40:30.248Z,40.30
2019-04-30T00:42:33.160Z,37.63
2019-04-30T00:44:37.264Z,37.50
2019-04-30T00:46:41.178Z,40.23
2019-04-30T00:48:52.641Z,38.10
2019-04-30T00:50:56.756Z,35.07
2019-04-30T00:53:07.268Z,34.80
2019-04-30T00:55:09.010Z,36.97
2019-04-30T00:57:12.218Z,35.50
2019-04-30T00:59:16.132Z,34.27
2019-04-30T01:01:58.619Z,34.73
2019-04-30T01:04:30.651Z,35.37
2019-04-30T01:06:49.805Z,35.60
2019-04-30T01:09:12.655Z,32.67
2019-04-30T01:11:16.623Z,34.33
2019-04-30T01:13:20.666Z,33.30
2019-04-30T01:15:24.779Z,35.57
2019-04-30T01:17:30.000Z,32.73
2019-04-30T01:19:34.209Z,30.90
2019-04-30T01:21:41.766Z,31.70
2019-04-30T01:23:51.742Z,32.67
2019-04-30T01:25:51.439Z,32.37
2019-04-30T01:27:55.647Z,34.77
2019-04-30T01:29:59.985Z,31.97
2019-04-30T01:32:04.007Z,33.00
2019-04-30T01:34:12.354Z,31.90
2019-04-30T01:36:13.766Z,33.77
2019-04-30T01:38:18.914Z,34.67
2019-04-30T01:40:22.926Z,32.70
2019-04-30T01:42:59.929Z,34.40
2019-04-30T01:45:04.082Z,31.57
2019-04-30T01:47:08.981Z,36.60
2019-04-30T01:49:16.079Z,32.60
2019-04-30T01:51:21.744Z,34.77
2019-04-30T01:53:25.677Z,33.20
2019-04-30T01:56:03.889Z,32.87
2019-04-30T01:58:20.369Z,34.40
2019-04-30T02:00:30.396Z,32.33
2019-04-30T02:02:39.483Z,35.43
2019-04-30T02:05:03.169Z,37.27
2019-04-30T02:07:19.577Z,33.30
2019-04-30T02:09:50.625Z,33.83
2019-04-30T02:12:15.569Z,37.60
2019-04-30T02:14:47.245Z,33.40
2019-04-30T02:17:03.461Z,37.97
2019-04-30T02:19:31.933Z,37.40
2019-04-30T02:21:35.935Z,33.87
2019-04-30T02:23:39.741Z,36.10
2019-04-30T02:25:43.910Z,37.77
2019-04-30T02:27:48.943Z,36.40
2019-04-30T02:29:52.870Z,34.90
2019-04-30T02:31:56.862Z,37.30
2019-04-30T02:34:10.162Z,38.87
2019-04-30T02:36:29.923Z,40.10
2019-04-30T02:38:35.812Z,39.80
2019-04-30T02:40:42.658Z,39.00
2019-04-30T02:42:45.577Z,41.80
2019-04-30T02:44:50.492Z,41.87
2019-04-30T02:47:00.127Z,42.07
2019-04-30T02:49:05.453Z,44.23
2019-04-30T02:51:26.385Z,41.47
2019-04-30T02:54:15.469Z,43.03
2019-04-30T02:56:29.908Z,43.27
2019-04-30T02:58:56.780Z,39.50
2019-04-30T03:01:05.220Z,40.13
2019-04-30T03:03:20.393Z,39.60
2019-04-30T03:08:15.917Z,39.37
2019-04-30T03:10:54.427Z,38.03
2019-04-30T03:13:05.718Z,38.47
2019-04-30T03:15:30.505Z,37.50
2019-04-30T03:17:52.056Z,37.60
2019-04-30T03:20:03.470Z,36.90
2019-04-30T03:22:34.734Z,38.00
2019-04-30T03:24:55.452Z,34.47
2019-04-30T03:27:09.702Z,35.83
2019-04-30T03:29:25.968Z,36.00
2019-04-30T03:31:44.070Z,37.77
2019-04-30T03:34:01.952Z,38.73
2019-04-30T03:36:21.348Z,38.83
2019-04-30T03:38:39.628Z,39.00
2019-04-30T03:40:50.245Z,38.80
2019-04-30T03:43:03.840Z,38.10
2019-04-30T03:45:33.180Z,37.50
2019-04-30T03:47:50.468Z,39.40
2019-04-30T03:50:22.210Z,40.43
2019-04-30T03:52:26.054Z,40.83
2019-04-30T03:57:30.281Z,40.53
2019-04-30T03:59:52.206Z,39.77
2019-04-30T04:02:20.819Z,42.43
2019-04-30T04:04:52.839Z,41.07
2019-04-30T04:07:05.962Z,43.43
2019-04-30T04:09:16.581Z,43.17
2019-04-30T04:11:26.850Z,45.13
2019-04-30T04:13:33.129Z,43.30
2019-04-30T04:15:36.356Z,44.50
2019-04-30T04:17:40.732Z,46.40
2019-04-30T04:19:44.529Z,47.17
2019-04-30T04:21:50.970Z,44.17
2019-04-30T04:23:54.164Z,47.73
2019-04-30T04:25:59.576Z,45.47
2019-04-30T04:28:06.406Z,44.80
2019-04-30T04:30:10.861Z,44.87
2019-04-30T04:32:14.755Z,43.70
2019-04-30T04:34:19.891Z,43.07
2019-04-30T04:36:23.727Z,44.70
2019-04-30T04:38:30.182Z,43.57
2019-04-30T04:40:34.960Z,44.87
2019-04-30T04:43:00.318Z,41.63
2019-04-30T04:45:33.633Z,43.47
2019-04-30T04:48:09.657Z,42.87
2019-04-30T04:50:30.026Z,40.17
2019-04-30T04:53:07.770Z,40.13
2019-04-30T04:55:22.269Z,37.73
2019-04-30T04:57:41.831Z,38.57
2019-04-30T05:00:03.478Z,37.97
2019-04-30T05:02:34.427Z,37.00
2019-04-30T05:04:50.691Z,38.73
2019-04-30T05:07:31.479Z,36.90
2019-04-30T05:10:01.477Z,36.93
2019-04-30T05:12:29.797Z,35.73
2019-04-30T05:14:49.020Z,37.00
2019-04-30T05:17:06.014Z,37.53
2019-04-30T05:19:18.527Z,35.87
2019-04-30T05:22:04.313Z,32.30
2019-04-30T05:24:38.433Z,29.30
2019-04-30T05:29:49.723Z,32.77
2019-04-30T05:32:15.214Z,31.33
2019-04-30T05:34:51.754Z,27.17
2019-04-30T05:37:08.990Z,26.30
2019-04-30T05:39:33.957Z,23.10
2019-04-30T05:42:22.247Z,25.63
2019-04-30T05:44:32.583Z,25.80
2019-04-30T05:47:09.287Z,27.67
2019-04-30T05:49:24.958Z,25.47
2019-04-30T05:51:59.981Z,28.67
2019-04-30T05:54:33.219Z,28.50
2019-04-30T05:56:59.398Z,28.40
2019-04-30T05:59:31.158Z,29.00
2019-04-30T06:02:05.826Z,31.07
2019-04-30T06:04:49.496Z,28.43
2019-04-30T06:07:01.720Z,29.00
2019-04-30T06:23:04.895Z,28.50
2019-04-30T06:27:33.215Z,27.17
2019-04-30T06:30:30.282Z,27.03
2019-04-30T06:33:05.822Z,27.63
2019-04-30T06:35:43.428Z,26.87
2019-04-30T06:38:20.268Z,29.37
2019-04-30T06:40:36.390Z,25.13
2019-04-30T06:43:05.125Z,27.17
2019-04-30T06:48:41.924Z,26.70
2019-04-30T06:50:49.098Z,32.10
2019-04-30T06:53:09.345Z,29.87
2019-04-30T06:55:49.245Z,34.07
2019-04-30T06:58:20.433Z,33.10
2019-04-30T07:00:40.884Z,32.87
2019-04-30T07:02:59.096Z,32.50
2019-04-30T07:05:25.006Z,30.33
2019-04-30T07:08:09.901Z,28.13
2019-04-30T07:10:36.167Z,32.87
2019-04-30T07:13:39.498Z,32.17
2019-04-30T07:16:35.254Z,32.97
2019-04-30T07:22:39.692Z,28.23
2019-04-30T07:25:19.590Z,33.50
2019-04-30T07:27:24.335Z,32.27
2019-04-30T07:29:29.567Z,35.40
2019-04-30T07:31:33.773Z,35.37
2019-04-30T07:33:39.624Z,36.97
2019-04-30T07:35:43.723Z,36.83
2019-04-30T07:37:49.469Z,35.83
2019-04-30T07:39:53.434Z,35.57
2019-04-30T07:45:39.830Z,35.57
2019-04-30T07:48:09.235Z,39.17
2019-04-30T07:53:02.582Z,40.93
2019-04-30T07:55:23.293Z,41.27
2019-04-30T07:58:01.093Z,42.60
2019-04-30T08:00:19.352Z,41.00
2019-04-30T08:05:25.804Z,41.83
2019-04-30T08:08:19.106Z,40.40
2019-04-30T08:10:43.627Z,39.47
2019-04-30T08:13:33.681Z,43.87
2019-04-30T08:16:22.004Z,40.97
2019-04-30T08:18:54.449Z,39.30
2019-04-30T08:22:14.613Z,39.10
2019-04-30T08:24:06.443Z,42.60
2019-04-30T08:26:29.898Z,43.13
2019-04-30T08:28:54.296Z,42.60
2019-04-30T08:31:36.569Z,41.13
2019-04-30T08:34:12.413Z,43.80
2019-04-30T08:39:19.616Z,42.47
2019-04-30T08:41:49.288Z,40.83
2019-04-30T08:44:20.804Z,40.73
2019-04-30T08:50:25.552Z,38.37
2019-04-30T08:59:53.308Z,38.23
2019-04-30T09:05:32.647Z,37.77
2019-04-30T09:08:19.415Z,37.80
2019-04-30T09:13:25.349Z,40.40
2019-04-30T09:16:23.342Z,36.73
2019-04-30T09:22:56.514Z,38.60
2019-04-30T09:25:55.922Z,35.03
2019-04-30T09:28:41.127Z,36.37
2019-04-30T09:32:55.307Z,37.00
2019-04-30T09:35:40.856Z,38.10
2019-04-30T09:39:10.807Z,36.77
2019-04-30T09:42:01.291Z,39.97
2019-04-30T10:08:05.429Z,35.20
2019-04-30T10:11:05.206Z,34.87
2019-04-30T10:11:09.807Z,35.80
2019-04-30T10:11:44.385Z,34.70
2019-04-30T10:14:47.087Z,36.60
2019-04-30T10:21:29.021Z,33.07
2019-04-30T10:27:38.774Z,33.27
2019-04-30T10:30:50.763Z,30.90
2019-04-30T10:44:26.186Z,27.03
2019-04-30T10:46:37.157Z,32.00
2019-04-30T10:56:22.108Z,27.67
2019-04-30T11:15:06.682Z,22.17
2019-04-30T11:18:05.234Z,26.00
2019-04-30T11:42:24.808Z,21.07
2019-04-30T11:45:01.007Z,22.50
2019-04-30T11:48:22.149Z,21.17
2019-04-30T11:51:39.203Z,18.53
2019-04-30T11:58:48.855Z,17.90
2019-04-30T12:04:52.433Z,19.93
2019-04-30T12:29:41.190Z,17.63
2019-04-30T12:36:34.959Z,18.40
2019-04-30T12:46:14.796Z,17.60
2019-04-30T13:02:25.522Z,17.80
2019-04-30T13:13:23.512Z,17.60
2019-04-30T13:17:26.609Z,15.60
2019-04-30T13:27:22.334Z,19.63
2019-04-30T13:30:11.400Z,21.30
2019-04-30T13:40:20.301Z,19.77
2019-04-30T13:59:35.695Z,19.70
2019-04-30T14:22:00.923Z,20.93
2019-04-30T14:34:22.037Z,22.03
2019-04-30T14:41:15.638Z,22.23
2019-04-30T14:47:30.219Z,20.90
2019-04-30T14:50:02.711Z,22.87
2019-04-30T14:52:36.603Z,23.07
2019-04-30T14:58:16.108Z,21.73
2019-04-30T15:01:34.560Z,22.33
2019-04-30T15:03:51.576Z,21.90
2019-04-30T15:09:03.455Z,21.30
2019-04-30T15:11:22.648Z,18.07
2019-04-30T15:14:04.587Z,22.13
2019-04-30T15:16:32.887Z,22.80
2019-04-30T15:18:29.017Z,21.30
2019-04-30T15:20:59.545Z,22.83
2019-04-30T15:24:01.637Z,21.97
2019-04-30T15:26:59.847Z,23.53
2019-04-30T15:29:19.057Z,23.43
2019-04-30T15:32:02.923Z,24.00
2019-04-30T15:34:44.036Z,20.53
2019-04-30T15:37:23.811Z,20.30
2019-04-30T15:39:39.348Z,20.90
2019-04-30T15:41:48.355Z,21.80
2019-04-30T15:43:53.266Z,19.13
2019-04-30T15:45:57.523Z,21.90
2019-04-30T15:48:01.842Z,21.47
2019-04-30T15:50:06.459Z,22.70
2019-04-30T15:52:43.445Z,19.60
2019-04-30T15:54:56.298Z,19.77
2019-04-30T15:57:00.241Z,19.47
2019-04-30T15:59:40.654Z,18.50
2019-04-30T16:01:48.416Z,19.53
2019-04-30T16:03:54.628Z,21.00
2019-04-30T16:06:11.851Z,20.37
2019-04-30T16:08:21.117Z,18.10
2019-04-30T16:11:12.435Z,17.63
2019-04-30T16:13:21.288Z,20.03
2019-04-30T16:15:51.105Z,19.17
2019-04-30T16:18:00.311Z,18.70
2019-04-30T16:24:24.575Z,18.63
2019-04-30T16:26:31.882Z,17.30
2019-04-30T16:28:51.642Z,18.77
2019-04-30T16:31:23.623Z,18.73
2019-04-30T16:34:09.004Z,18.43
2019-04-30T16:36:32.507Z,17.10
2019-04-30T16:38:38.588Z,19.57
2019-04-30T16:40:42.558Z,17.83
2019-04-30T16:42:49.799Z,18.87
2019-04-30T16:45:01.425Z,19.70
2019-04-30T16:47:19.915Z,20.20
2019-04-30T16:49:49.270Z,21.23
2019-04-30T16:52:24.314Z,19.47
2019-04-30T16:54:28.834Z,20.40
2019-04-30T16:57:06.135Z,20.90
2019-04-30T16:59:19.720Z,19.80
2019-04-30T17:01:23.998Z,19.17
2019-04-30T17:03:38.805Z,18.97
2019-04-30T17:06:10.838Z,18.10
2019-04-30T17:08:49.446Z,18.03
2019-04-30T17:11:17.507Z,19.57
2019-04-30T17:13:59.533Z,16.20
2019-04-30T17:16:30.208Z,19.70
2019-04-30T17:18:50.526Z,18.13
2019-04-30T17:23:52.010Z,20.60
2019-04-30T17:26:04.197Z,17.40
2019-04-30T17:28:09.232Z,19.20
2019-04-30T17:30:19.340Z,18.40
2019-04-30T17:32:29.891Z,19.40
2019-04-30T17:34:41.920Z,17.37
2019-04-30T17:36:44.768Z,18.47
2019-04-30T17:38:54.837Z,25.87
2019-04-30T17:40:58.953Z,18.23
2019-04-30T17:43:03.499Z,20.70
2019-04-30T17:45:09.566Z,18.60
2019-04-30T17:47:14.118Z,19.37
2019-04-30T17:49:18.967Z,19.17
2019-04-30T17:51:23.577Z,19.20
2019-04-30T17:53:28.754Z,18.40
2019-04-30T17:58:16.235Z,19.53
2019-04-30T18:00:29.173Z,18.13
2019-04-30T18:02:30.067Z,16.87
2019-04-30T18:04:34.820Z,18.43
2019-04-30T18:06:38.797Z,19.80
2019-04-30T18:08:50.282Z,20.63
2019-04-30T18:10:54.336Z,19.00
2019-04-30T18:13:30.375Z,18.77
2019-04-30T18:15:34.636Z,20.07
2019-04-30T18:17:38.584Z,20.47
2019-04-30T18:20:01.325Z,24.10
2019-04-30T18:22:21.827Z,23.50
2019-04-30T18:24:39.267Z,20.40
2019-04-30T18:26:50.193Z,24.07
2019-04-30T18:28:54.762Z,20.97
2019-04-30T18:30:59.147Z,20.23
2019-04-30T18:33:04.381Z,20.97
2019-04-30T18:35:08.728Z,22.47
2019-04-30T18:37:16.360Z,20.50
2019-04-30T18:39:33.390Z,23.73
2019-04-30T18:42:13.263Z,21.07
2019-04-30T18:44:16.878Z,20.57
2019-04-30T18:46:33.074Z,21.33
2019-04-30T18:49:02.601Z,22.00
2019-04-30T18:51:36.554Z,24.63
2019-04-30T18:54:07.753Z,20.93
2019-04-30T18:56:44.330Z,23.50
2019-04-30T18:59:19.648Z,23.83
2019-04-30T19:01:45.757Z,23.00
2019-04-30T19:04:22.358Z,31.53
2019-04-30T19:06:54.472Z,27.67
2019-04-30T19:09:44.033Z,24.03
2019-04-30T19:11:56.352Z,24.43
2019-04-30T19:14:26.456Z,24.00
2019-04-30T19:16:50.354Z,22.77
2019-04-30T19:19:22.398Z,22.27
2019-04-30T19:21:35.317Z,23.60
2019-04-30T19:23:39.700Z,24.00
2019-04-30T19:26:05.547Z,23.90
2019-04-30T19:28:14.301Z,23.53
2019-04-30T19:30:16.171Z,25.57
2019-04-30T19:32:20.486Z,25.50
2019-04-30T19:34:24.655Z,23.37
2019-04-30T19:36:37.403Z,25.60
2019-04-30T19:38:34.909Z,26.07
2019-04-30T19:40:39.266Z,30.67
2019-04-30T19:42:43.555Z,31.40
2019-04-30T19:44:57.199Z,29.60
2019-04-30T19:47:24.516Z,28.70
2019-04-30T19:49:28.765Z,25.67
2019-04-30T19:51:32.979Z,28.30
2019-04-30T19:53:49.115Z,29.37
2019-04-30T19:55:53.280Z,25.30
2019-04-30T19:57:57.206Z,27.00
2019-04-30T20:00:12.631Z,27.63
2019-04-30T20:02:19.103Z,30.57
2019-04-30T20:04:33.178Z,25.67
2019-04-30T20:06:33.148Z,26.70
2019-04-30T20:08:39.637Z,29.23
2019-04-30T20:10:43.533Z,31.80
2019-04-30T20:12:49.294Z,29.60
2019-04-30T20:14:53.543Z,29.17
2019-04-30T20:16:59.000Z,31.53
2019-04-30T20:19:03.352Z,33.63
2019-04-30T20:21:11.057Z,33.50
2019-04-30T20:23:15.185Z,106.87
2019-04-30T20:25:19.257Z,40.50
2019-04-30T20:27:23.180Z,38.20
2019-04-30T20:29:28.896Z,36.57
2019-04-30T20:31:33.146Z,32.83
2019-04-30T20:33:38.858Z,37.17
2019-04-30T20:35:42.887Z,36.97
2019-04-30T20:38:04.688Z,36.90
2019-04-30T20:40:13.725Z,34.80
2019-04-30T20:42:17.833Z,36.70
2019-04-30T20:44:21.868Z,40.20
2019-04-30T20:46:32.639Z,40.97
2019-04-30T20:48:31.752Z,37.90
2019-04-30T20:50:36.185Z,36.17
2019-04-30T20:52:49.058Z,44.17
2019-04-30T20:54:54.079Z,36.80
2019-04-30T20:57:36.680Z,42.63
2019-04-30T20:59:40.902Z,45.47
2019-04-30T21:03:11.509Z,41.40
2019-04-30T21:04:14.832Z,52.50
2019-04-30T21:06:19.746Z,43.93
2019-04-30T21:08:24.072Z,68.60
2019-04-30T21:11:19.374Z,44.50
2019-04-30T21:24:08.806Z,46.27
2019-04-30T21:32:48.641Z,47.30
2019-04-30T21:35:07.974Z,49.07
2019-04-30T21:37:12.791Z,47.40
2019-04-30T21:39:17.105Z,47.83
2019-04-30T21:41:27.031Z,47.20
2019-04-30T21:43:34.280Z,49.37
2019-04-30T21:45:59.457Z,48.67
2019-04-30T21:48:26.046Z,48.20
2019-04-30T22:02:46.700Z,49.00
2019-04-30T22:04:50.524Z,52.77
2019-04-30T22:06:55.081Z,51.43
2019-04-30T22:09:28.751Z,53.83
2019-04-30T22:11:44.239Z,56.43
2019-04-30T22:13:44.588Z,53.90
2019-04-30T22:25:26.812Z,49.60
2019-04-30T22:31:04.485Z,53.70
2019-04-30T22:33:39.041Z,53.07
2019-04-30T22:36:21.034Z,55.60
2019-04-30T22:38:25.759Z,52.70
2019-04-30T22:40:31.613Z,53.90
2019-04-30T22:42:36.344Z,54.87
2019-04-30T22:44:40.293Z,55.57
2019-04-30T22:47:05.497Z,60.57
2019-04-30T22:49:09.925Z,55.90
2019-04-30T22:52:13.456Z,57.97
2019-04-30T22:54:53.724Z,56.47
2019-04-30T22:57:22.467Z,58.10
2019-04-30T23:00:04.998Z,60.20
2019-04-30T23:03:18.773Z,62.27
2019-04-30T23:04:58.237Z,63.07
2019-04-30T23:07:25.435Z,61.73
2019-04-30T23:09:29.652Z,63.13
2019-04-30T23:11:33.625Z,64.13
2019-04-30T23:13:37.560Z,62.73
2019-04-30T23:15:56.205Z,61.67
2019-04-30T23:18:32.275Z,65.00
2019-04-30T23:20:36.482Z,67.00
2019-04-30T23:25:33.705Z,61.80
2019-04-30T23:27:49.644Z,65.83
2019-04-30T23:30:23.909Z,63.97
2019-04-30T23:32:28.021Z,69.47
2019-04-30T23:35:06.814Z,66.17
2019-04-30T23:37:40.656Z,69.30
2019-04-30T23:39:56.679Z,70.40
2019-04-30T23:42:40.959Z,70.20
2019-04-30T23:44:56.852Z,69.47
2019-04-30T23:46:58.102Z,67.97
2019-04-30T23:49:02.153Z,67.50
2019-04-30T23:51:24.597Z,69.80
2019-04-30T23:53:28.507Z,70.57
2019-04-30T23:55:32.534Z,65.70
